createdAt,value
2022-08-24T00:02:26.632Z,18.44
2022-08-24T00:04:57.118Z,18.38
2022-08-24T00:07:28.601Z,18.49
2022-08-24T00:10:01.537Z,18.50
2022-08-24T00:12:32.524Z,18.34
2022-08-24T00:15:03.249Z,18.40
2022-08-24T00:17:34.144Z,18.22
2022-08-24T00:20:05.742Z,18.28
2022-08-24T00:22:36.544Z,18.22
2022-08-24T00:25:07.975Z,18.18
2022-08-24T00:27:39.721Z,18.20
2022-08-24T00:30:14.988Z,18.19
2022-08-24T00:32:47.162Z,18.20
2022-08-24T00:35:19.943Z,18.20
2022-08-24T00:37:52.229Z,18.30
2022-08-24T00:40:33.334Z,18.50
2022-08-24T00:43:05.789Z,18.24
2022-08-24T00:45:45.183Z,18.12
2022-08-24T00:48:18.642Z,18.23
2022-08-24T00:50:53.877Z,18.08
2022-08-24T00:53:39.097Z,18.12
2022-08-24T00:56:15.604Z,17.97
2022-08-24T00:58:56.851Z,17.91
2022-08-24T01:01:24.411Z,17.90
2022-08-24T01:03:57.637Z,17.88
2022-08-24T01:06:28.430Z,17.93
2022-08-24T01:08:58.810Z,17.93
2022-08-24T01:11:33.679Z,17.88
2022-08-24T01:14:06.132Z,17.98
2022-08-24T01:16:54.682Z,18.04
2022-08-24T01:19:39.775Z,17.92
2022-08-24T01:22:21.734Z,17.80
2022-08-24T01:24:52.647Z,17.79
2022-08-24T01:27:27.977Z,17.81
2022-08-24T01:29:58.354Z,17.79
2022-08-24T01:32:29.019Z,17.78
2022-08-24T01:34:59.593Z,17.98
2022-08-24T01:37:32.547Z,17.83
2022-08-24T01:40:06.742Z,17.77
2022-08-24T01:42:38.101Z,17.87
2022-08-24T01:45:09.244Z,17.88
2022-08-24T01:47:40.160Z,17.80
2022-08-24T01:50:10.581Z,17.98
2022-08-24T01:53:03.997Z,18.22
2022-08-24T01:55:19.010Z,17.98
2022-08-24T01:57:49.015Z,17.86
2022-08-24T02:00:20.114Z,17.83
2022-08-24T02:02:50.938Z,17.86
2022-08-24T02:05:22.046Z,17.85
2022-08-24T02:07:54.770Z,18.14
2022-08-24T02:10:28.457Z,18.20
2022-08-24T02:12:59.741Z,18.05
2022-08-24T02:15:37.968Z,18.06
2022-08-24T02:18:15.624Z,18.00
2022-08-24T02:20:45.705Z,18.08
2022-08-24T02:23:17.251Z,18.10
2022-08-24T02:25:48.565Z,18.16
2022-08-24T02:28:20.368Z,18.24
2022-08-24T02:30:51.010Z,17.98
2022-08-24T02:33:23.995Z,17.98
2022-08-24T02:35:55.082Z,17.92
2022-08-24T02:38:25.454Z,18.06
2022-08-24T02:40:57.563Z,18.05
2022-08-24T02:43:28.365Z,18.22
2022-08-24T02:45:58.938Z,18.19
2022-08-24T02:48:30.207Z,18.26
2022-08-24T02:51:00.915Z,18.29
2022-08-24T02:53:31.422Z,18.24
2022-08-24T02:56:01.807Z,18.33
2022-08-24T02:58:33.244Z,18.22
2022-08-24T03:01:03.851Z,18.24
2022-08-24T03:03:35.926Z,18.06
2022-08-24T03:06:08.048Z,18.07
2022-08-24T03:08:38.727Z,18.18
2022-08-24T03:11:09.517Z,18.10
2022-08-24T03:13:40.756Z,17.95
2022-08-24T03:16:11.381Z,17.95
2022-08-24T03:18:42.699Z,17.85
2022-08-24T03:21:14.916Z,17.72
2022-08-24T03:23:45.483Z,17.86
2022-08-24T03:26:16.216Z,17.80
2022-08-24T03:28:47.160Z,17.73
2022-08-24T03:31:19.638Z,17.88
2022-08-24T03:33:50.168Z,17.77
2022-08-24T03:36:20.646Z,17.70
2022-08-24T03:38:51.186Z,17.68
2022-08-24T03:41:21.568Z,17.67
2022-08-24T03:43:52.305Z,17.56
2022-08-24T03:46:27.057Z,17.65
2022-08-24T03:48:59.159Z,17.71
2022-08-24T03:51:30.552Z,17.66
2022-08-24T03:54:02.366Z,17.58
2022-08-24T03:56:33.069Z,17.50
2022-08-24T03:59:04.363Z,17.46
2022-08-24T04:01:35.068Z,17.40
2022-08-24T04:04:06.607Z,17.48
2022-08-24T04:06:37.521Z,17.50
2022-08-24T04:09:08.043Z,17.52
2022-08-24T04:11:41.543Z,17.42
2022-08-24T04:14:26.573Z,17.32
2022-08-24T04:16:45.522Z,17.52
2022-08-24T04:19:17.785Z,17.65
2022-08-24T04:21:48.510Z,17.62
2022-08-24T04:24:19.866Z,17.52
2022-08-24T04:26:50.246Z,17.40
2022-08-24T04:29:21.568Z,17.45
2022-08-24T04:31:51.989Z,17.40
2022-08-24T04:34:22.747Z,17.60
2022-08-24T04:36:53.255Z,17.51
2022-08-24T04:39:23.728Z,17.56
2022-08-24T04:41:55.816Z,17.54
2022-08-24T04:44:26.359Z,17.49
2022-08-24T04:46:56.824Z,17.54
2022-08-24T04:49:27.625Z,17.52
2022-08-24T04:51:58.397Z,17.52
2022-08-24T04:54:28.878Z,17.66
2022-08-24T04:56:59.547Z,17.68
2022-08-24T04:59:30.033Z,17.77
2022-08-24T05:02:00.608Z,17.79
2022-08-24T05:04:33.583Z,17.82
2022-08-24T05:07:04.088Z,17.90
2022-08-24T05:09:34.562Z,17.86
2022-08-24T05:12:09.984Z,18.12
2022-08-24T05:14:40.519Z,19.27
2022-08-24T05:17:12.980Z,20.88
2022-08-24T05:19:43.586Z,22.44
2022-08-24T05:22:14.157Z,23.89
2022-08-24T05:24:44.643Z,24.89
2022-08-24T05:27:16.280Z,26.30
2022-08-24T05:29:48.410Z,26.36
2022-08-24T05:32:19.894Z,26.51
2022-08-24T05:34:50.292Z,27.03
2022-08-24T05:37:20.718Z,27.43
2022-08-24T05:39:51.186Z,27.00
2022-08-24T05:42:22.712Z,27.15
2022-08-24T05:44:53.353Z,27.22
2022-08-24T05:47:26.006Z,26.44
2022-08-24T05:49:56.440Z,26.09
2022-08-24T05:52:27.053Z,26.11
2022-08-24T05:55:00.455Z,26.66
2022-08-24T05:57:33.725Z,25.83
2022-08-24T06:00:08.347Z,25.75
2022-08-24T06:02:39.257Z,25.55
2022-08-24T06:05:12.805Z,26.86
2022-08-24T06:07:43.379Z,29.06
2022-08-24T06:10:35.280Z,29.88
2022-08-24T06:12:46.454Z,30.38
2022-08-24T06:15:17.655Z,30.22
2022-08-24T06:17:48.303Z,31.55
2022-08-24T06:20:18.866Z,32.36
2022-08-24T06:22:49.507Z,32.38
2022-08-24T06:25:38.228Z,30.86
2022-08-24T06:28:08.719Z,30.38
2022-08-24T06:30:39.660Z,28.70
2022-08-24T06:33:10.927Z,26.70
2022-08-24T06:35:46.834Z,26.25
2022-08-24T06:38:14.982Z,24.89
2022-08-24T06:40:47.437Z,24.50
2022-08-24T06:43:19.296Z,24.33
2022-08-24T06:45:51.919Z,24.14
2022-08-24T06:48:23.130Z,23.31
2022-08-24T06:50:55.669Z,21.42
2022-08-24T06:53:27.143Z,20.94
2022-08-24T06:55:59.953Z,20.93
2022-08-24T06:58:30.354Z,21.07
2022-08-24T07:01:10.422Z,21.18
2022-08-24T07:03:41.090Z,21.28
2022-08-24T07:06:12.672Z,21.16
2022-08-24T07:08:44.715Z,20.89
2022-08-24T07:11:18.780Z,20.88
2022-08-24T07:13:50.435Z,21.35
2022-08-24T07:16:22.133Z,21.88
2022-08-24T07:18:52.604Z,21.47
2022-08-24T07:21:24.592Z,21.79
2022-08-24T07:24:04.851Z,22.30
2022-08-24T07:26:37.175Z,22.40
2022-08-24T07:29:47.231Z,22.12
2022-08-24T07:31:57.484Z,21.64
2022-08-24T07:34:29.235Z,21.62
2022-08-24T07:37:00.712Z,21.73
2022-08-24T07:39:31.708Z,22.08
2022-08-24T07:42:12.967Z,22.22
2022-08-24T07:44:36.039Z,22.32
2022-08-24T07:47:27.208Z,22.51
2022-08-24T07:49:40.522Z,22.75
2022-08-24T07:52:11.010Z,22.84
2022-08-24T07:54:41.410Z,22.80
2022-08-24T07:57:11.890Z,23.24
2022-08-24T07:59:42.968Z,23.71
2022-08-24T08:02:14.716Z,23.45
2022-08-24T08:04:45.261Z,23.26
2022-08-24T08:07:19.803Z,23.20
2022-08-24T08:09:50.798Z,23.73
2022-08-24T08:12:21.303Z,23.72
2022-08-24T08:14:51.729Z,23.88
2022-08-24T08:17:22.132Z,23.93
2022-08-24T08:19:52.653Z,24.23
2022-08-24T08:22:41.311Z,24.73
2022-08-24T08:25:12.323Z,23.98
2022-08-24T08:30:13.847Z,23.29
2022-08-24T08:32:44.468Z,23.40
2022-08-24T08:35:15.315Z,23.59
2022-08-24T08:37:46.375Z,23.02
2022-08-24T08:40:27.237Z,22.74
2022-08-24T08:43:09.543Z,23.49
2022-08-24T08:46:04.447Z,23.92
2022-08-24T08:49:06.640Z,23.80
2022-08-24T08:51:45.911Z,23.98
2022-08-24T08:54:19.490Z,24.18
2022-08-24T08:57:17.454Z,24.43
2022-08-24T08:59:54.209Z,24.22
2022-08-24T09:02:33.597Z,24.57
2022-08-24T09:05:09.309Z,24.91
2022-08-24T09:08:11.347Z,24.43
2022-08-24T09:10:55.536Z,23.78
2022-08-24T09:13:56.434Z,24.35
2022-08-24T09:16:44.956Z,23.98
2022-08-24T09:19:34.660Z,24.45
2022-08-24T09:22:14.162Z,24.35
2022-08-24T09:24:56.854Z,24.51
2022-08-24T09:27:55.859Z,23.97
2022-08-24T09:30:29.901Z,23.30
2022-08-24T09:33:24.542Z,22.42
2022-08-24T09:36:10.176Z,22.36
2022-08-24T09:39:07.842Z,22.67
2022-08-24T09:42:02.824Z,22.53
2022-08-24T09:44:53.042Z,23.65
2022-08-24T09:47:43.287Z,23.76
2022-08-24T09:50:22.814Z,23.73
2022-08-24T09:53:31.260Z,24.03
2022-08-24T09:56:36.967Z,23.04
2022-08-24T09:59:29.875Z,23.88
2022-08-24T10:02:18.541Z,23.79
2022-08-24T10:05:09.890Z,23.98
2022-08-24T10:07:52.645Z,23.69
2022-08-24T10:10:28.867Z,23.35
2022-08-24T10:13:25.010Z,23.08
2022-08-24T10:16:03.414Z,23.81
2022-08-24T10:18:56.976Z,23.96
2022-08-24T10:21:42.470Z,24.15
2022-08-24T10:24:18.485Z,24.26
2022-08-24T10:26:54.931Z,23.95
2022-08-24T10:29:41.951Z,24.19
2022-08-24T10:32:21.613Z,24.82
2022-08-24T10:35:16.349Z,24.07
2022-08-24T10:38:00.327Z,23.41
2022-08-24T10:41:05.892Z,24.50
2022-08-24T10:43:39.761Z,24.64
2022-08-24T10:46:41.903Z,23.84
2022-08-24T10:49:18.182Z,23.40
2022-08-24T10:52:08.177Z,24.02
2022-08-24T10:54:39.276Z,24.41
2022-08-24T10:57:24.946Z,24.08
2022-08-24T11:00:12.432Z,23.56
2022-08-24T11:02:46.740Z,24.16
2022-08-24T11:05:20.319Z,24.66
2022-08-24T11:08:05.137Z,24.08
2022-08-24T11:10:39.164Z,24.56
2022-08-24T11:13:21.694Z,24.70
2022-08-24T11:15:57.870Z,24.30
2022-08-24T11:18:40.200Z,24.68
2022-08-24T11:21:16.743Z,24.62
2022-08-24T11:23:47.998Z,25.27
2022-08-24T11:26:22.986Z,25.48
2022-08-24T11:29:01.620Z,25.00
2022-08-24T11:31:37.834Z,25.14
2022-08-24T11:34:17.484Z,25.40
2022-08-24T11:36:48.060Z,25.78
2022-08-24T11:39:33.237Z,25.36
2022-08-24T11:42:12.838Z,24.71
2022-08-24T11:44:46.514Z,24.24
2022-08-24T11:47:34.678Z,24.53
2022-08-24T11:50:23.520Z,24.44
2022-08-24T11:53:12.399Z,24.84
2022-08-24T11:56:03.776Z,25.24
2022-08-24T11:58:41.374Z,24.65
2022-08-24T12:01:44.506Z,24.45
2022-08-24T12:04:42.349Z,25.26
2022-08-24T12:07:37.170Z,24.82
2022-08-24T12:10:24.260Z,24.98
2022-08-24T12:13:31.050Z,24.54
2022-08-24T12:16:13.560Z,24.62
2022-08-24T12:18:50.281Z,24.90
2022-08-24T12:21:23.731Z,25.34
2022-08-24T12:23:57.310Z,25.45
2022-08-24T12:26:40.026Z,25.92
2022-08-24T12:29:13.676Z,25.59
2022-08-24T12:31:47.301Z,25.79
2022-08-24T12:34:23.805Z,25.35
2022-08-24T12:37:00.045Z,25.25
2022-08-24T12:39:36.480Z,24.96
2022-08-24T12:42:11.101Z,24.87
2022-08-24T12:44:50.304Z,25.03
2022-08-24T12:47:30.538Z,25.50
2022-08-24T12:50:12.706Z,25.85
2022-08-24T12:53:04.254Z,26.23
2022-08-24T12:56:14.933Z,26.66
2022-08-24T12:58:57.648Z,26.99
2022-08-24T13:01:33.177Z,27.13
2022-08-24T13:04:31.431Z,27.22
2022-08-24T13:07:08.966Z,26.72
2022-08-24T13:09:54.305Z,26.05
2022-08-24T13:12:43.645Z,25.84
2022-08-24T13:15:29.706Z,25.78
2022-08-24T13:18:09.711Z,25.78
2022-08-24T13:20:46.870Z,25.87
2022-08-24T13:23:23.325Z,25.70
2022-08-24T13:26:03.195Z,26.20
2022-08-24T13:28:45.786Z,25.92
2022-08-24T13:31:28.484Z,26.53
2022-08-24T13:34:02.116Z,26.99
2022-08-24T13:36:38.414Z,27.23
2022-08-24T13:39:29.047Z,27.32
2022-08-24T13:42:21.540Z,27.28
2022-08-24T13:45:14.752Z,27.14
2022-08-24T13:48:03.679Z,26.73
2022-08-24T13:50:51.263Z,26.60
2022-08-24T13:53:47.535Z,26.60
2022-08-24T13:56:44.443Z,26.22
2022-08-24T13:59:22.498Z,26.79
2022-08-24T14:02:20.301Z,26.54
2022-08-24T14:05:14.972Z,26.00
2022-08-24T14:08:08.168Z,26.07
2022-08-24T14:10:47.559Z,25.66
2022-08-24T14:13:38.918Z,25.57
2022-08-24T14:16:49.762Z,25.82
2022-08-24T14:19:32.132Z,26.31
2022-08-24T14:22:14.533Z,26.26
2022-08-24T14:24:48.552Z,26.08
2022-08-24T14:27:44.831Z,26.20
2022-08-24T14:30:22.637Z,25.98
2022-08-24T14:33:04.946Z,26.07
2022-08-24T14:35:45.055Z,26.48
2022-08-24T14:38:28.592Z,26.62
2022-08-24T14:41:23.782Z,26.70
2022-08-24T14:44:20.429Z,26.82
2022-08-24T14:46:54.461Z,27.12
2022-08-24T14:49:46.794Z,26.87
2022-08-24T14:52:23.263Z,26.88
2022-08-24T14:55:05.891Z,26.80
2022-08-24T14:58:03.701Z,26.29
2022-08-24T15:00:53.910Z,26.28
2022-08-24T15:03:39.304Z,25.94
2022-08-24T15:06:32.944Z,25.92
2022-08-24T15:09:12.637Z,26.07
2022-08-24T15:11:43.850Z,26.33
2022-08-24T15:14:24.357Z,26.44
2022-08-24T15:17:05.729Z,26.25
2022-08-24T15:19:54.459Z,26.31
2022-08-24T15:22:41.020Z,26.31
2022-08-24T15:25:16.191Z,26.40
2022-08-24T15:27:51.326Z,26.58
2022-08-24T15:30:28.018Z,26.61
2022-08-24T15:33:19.389Z,26.35
2022-08-24T15:35:51.835Z,25.99
2022-08-24T15:38:25.280Z,26.08
2022-08-24T15:41:17.036Z,26.03
2022-08-24T15:43:53.379Z,26.11
2022-08-24T15:46:38.981Z,25.86
2022-08-24T15:49:20.470Z,25.99
2022-08-24T15:52:06.461Z,25.89
2022-08-24T15:54:40.013Z,26.09
2022-08-24T15:57:32.285Z,26.09
2022-08-24T16:00:19.759Z,25.99
2022-08-24T16:02:50.216Z,26.04
2022-08-24T16:05:26.326Z,26.06
2022-08-24T16:08:09.381Z,25.98
2022-08-24T16:10:54.618Z,25.80
2022-08-24T16:13:33.384Z,26.23
2022-08-24T16:16:07.317Z,26.01
2022-08-24T16:19:02.098Z,26.01
2022-08-24T16:21:41.148Z,25.84
2022-08-24T16:24:15.490Z,25.76
2022-08-24T16:26:51.715Z,25.79
2022-08-24T16:29:44.715Z,25.68
2022-08-24T16:32:43.341Z,25.68
2022-08-24T16:35:12.171Z,25.49
2022-08-24T16:37:43.227Z,25.56
2022-08-24T16:40:14.051Z,25.45
2022-08-24T16:42:44.668Z,25.42
2022-08-24T16:45:19.842Z,25.50
2022-08-24T16:47:50.785Z,25.34
2022-08-24T16:50:22.200Z,25.27
2022-08-24T16:52:54.285Z,25.33
2022-08-24T16:55:25.816Z,25.22
2022-08-24T16:57:57.055Z,25.21
2022-08-24T17:00:27.532Z,25.22
2022-08-24T17:02:58.086Z,25.21
2022-08-24T17:05:29.655Z,25.18
2022-08-24T17:08:02.080Z,25.20
2022-08-24T17:10:37.368Z,25.25
2022-08-24T17:13:04.794Z,25.22
2022-08-24T17:15:36.707Z,25.23
2022-08-24T17:18:10.172Z,25.23
2022-08-24T17:20:41.758Z,25.11
2022-08-24T17:23:12.757Z,25.08
2022-08-24T17:25:43.437Z,25.02
2022-08-24T17:28:17.118Z,24.94
2022-08-24T17:30:51.391Z,24.96
2022-08-24T17:33:22.510Z,25.01
2022-08-24T17:35:54.870Z,25.07
2022-08-24T17:38:25.462Z,25.03
2022-08-24T17:40:55.830Z,24.78
2022-08-24T17:43:26.335Z,24.68
2022-08-24T17:45:57.137Z,24.59
2022-08-24T17:48:28.417Z,24.58
2022-08-24T17:50:58.876Z,24.49
2022-08-24T17:53:29.347Z,24.44
2022-08-24T17:55:59.852Z,24.43
2022-08-24T17:58:32.099Z,24.44
2022-08-24T18:01:02.512Z,24.31
2022-08-24T18:03:32.966Z,24.18
2022-08-24T18:06:03.448Z,24.08
2022-08-24T18:08:34.403Z,24.10
2022-08-24T18:11:04.883Z,24.06
2022-08-24T18:13:35.249Z,23.97
2022-08-24T18:16:06.314Z,23.96
2022-08-24T18:18:36.859Z,23.80
2022-08-24T18:21:07.436Z,23.84
2022-08-24T18:23:43.642Z,23.69
2022-08-24T18:26:11.366Z,23.64
2022-08-24T18:28:42.306Z,23.62
2022-08-24T18:31:15.314Z,23.58
2022-08-24T18:33:45.895Z,23.52
2022-08-24T18:36:17.189Z,23.48
2022-08-24T18:38:47.617Z,23.52
2022-08-24T18:41:18.229Z,23.44
2022-08-24T18:43:48.741Z,23.44
2022-08-24T18:46:19.250Z,23.34
2022-08-24T18:48:49.827Z,23.35
2022-08-24T18:51:21.683Z,23.25
2022-08-24T18:53:54.682Z,23.24
2022-08-24T18:56:25.156Z,23.16
2022-08-24T18:58:58.008Z,23.11
2022-08-24T19:01:29.757Z,23.16
2022-08-24T19:04:06.013Z,23.03
2022-08-24T19:06:32.597Z,22.96
2022-08-24T19:09:03.135Z,22.94
2022-08-24T19:11:33.711Z,22.90
2022-08-24T19:14:04.547Z,22.81
2022-08-24T19:16:35.077Z,22.86
2022-08-24T19:19:06.436Z,22.87
2022-08-24T19:21:37.801Z,22.94
2022-08-24T19:24:08.930Z,22.72
2022-08-24T19:26:39.455Z,22.73
2022-08-24T19:29:09.926Z,22.78
2022-08-24T19:31:40.362Z,22.58
2022-08-24T19:34:11.523Z,22.57
2022-08-24T19:36:43.796Z,22.50
2022-08-24T19:39:14.253Z,22.56
2022-08-24T19:41:48.362Z,22.52
2022-08-24T19:44:39.019Z,22.50
2022-08-24T19:47:11.202Z,22.40
2022-08-24T19:49:41.601Z,22.35
2022-08-24T19:52:12.117Z,22.27
2022-08-24T19:54:45.426Z,22.22
2022-08-24T19:57:37.225Z,22.21
2022-08-24T20:00:19.430Z,22.18
2022-08-24T20:02:51.911Z,22.10
2022-08-24T20:05:24.970Z,22.06
2022-08-24T20:07:56.338Z,22.01
2022-08-24T20:10:27.326Z,22.03
2022-08-24T20:12:57.795Z,21.95
2022-08-24T20:15:28.688Z,22.01
2022-08-24T20:17:59.755Z,21.94
2022-08-24T20:20:32.322Z,21.87
2022-08-24T20:23:04.651Z,21.81
2022-08-24T20:25:36.998Z,21.77
2022-08-24T20:30:40.863Z,21.70
2022-08-24T20:33:17.339Z,21.96
2022-08-24T20:35:47.896Z,21.85
2022-08-24T20:38:21.248Z,21.62
2022-08-24T20:40:52.684Z,21.54
2022-08-24T20:43:23.144Z,21.53
2022-08-24T20:45:54.264Z,21.55
2022-08-24T20:48:30.308Z,21.52
2022-08-24T20:51:01.641Z,21.50
2022-08-24T20:53:32.072Z,21.42
2022-08-24T20:56:05.681Z,21.47
2022-08-24T20:58:36.304Z,21.35
2022-08-24T21:01:08.413Z,21.38
2022-08-24T21:03:39.697Z,21.30
2022-08-24T21:06:12.894Z,21.24
2022-08-24T21:08:46.008Z,21.18
2022-08-24T21:11:17.080Z,21.16
2022-08-24T21:13:47.625Z,21.15
2022-08-24T21:16:18.468Z,21.05
2022-08-24T21:18:49.252Z,21.07
2022-08-24T21:21:20.444Z,20.99
2022-08-24T21:23:50.921Z,20.94
2022-08-24T21:26:24.441Z,20.86
2022-08-24T21:28:57.264Z,20.88
2022-08-24T21:31:28.682Z,20.89
2022-08-24T21:34:17.182Z,20.96
2022-08-24T21:36:49.210Z,20.83
2022-08-24T21:39:19.777Z,20.80
2022-08-24T21:41:50.337Z,20.77
2022-08-24T21:44:20.788Z,20.82
2022-08-24T21:46:52.101Z,20.84
2022-08-24T21:49:22.814Z,20.69
2022-08-24T21:51:53.454Z,20.68
2022-08-24T21:54:24.008Z,20.65
2022-08-24T21:56:54.958Z,20.76
2022-08-24T21:59:25.443Z,20.68
2022-08-24T22:01:57.716Z,20.58
2022-08-24T22:04:28.627Z,20.54
2022-08-24T22:07:00.010Z,20.48
2022-08-24T22:09:30.567Z,20.46
2022-08-24T22:12:01.904Z,20.43
2022-08-24T22:14:32.358Z,20.39
2022-08-24T22:17:02.796Z,20.42
2022-08-24T22:19:33.341Z,20.44
2022-08-24T22:22:03.707Z,20.36
2022-08-24T22:24:34.689Z,20.32
2022-08-24T22:27:05.367Z,20.31
2022-08-24T22:29:35.784Z,20.24
2022-08-24T22:32:06.811Z,20.26
2022-08-24T22:34:37.733Z,20.26
2022-08-24T22:37:08.168Z,20.24
2022-08-24T22:39:38.525Z,20.25
2022-08-24T22:42:09.830Z,20.18
2022-08-24T22:44:40.295Z,20.14
2022-08-24T22:47:13.164Z,20.13
2022-08-24T22:49:45.896Z,20.04
2022-08-24T22:52:16.748Z,20.06
2022-08-24T22:54:47.351Z,20.07
2022-08-24T22:57:19.966Z,20.00
2022-08-24T22:59:52.809Z,20.08
2022-08-24T23:02:24.783Z,20.21
2022-08-24T23:04:55.304Z,20.12
2022-08-24T23:07:25.796Z,20.16
2022-08-24T23:09:56.289Z,20.22
2022-08-24T23:12:29.077Z,20.25
2022-08-24T23:14:59.677Z,20.08
2022-08-24T23:17:30.160Z,19.90
2022-08-24T23:20:00.906Z,19.96
2022-08-24T23:22:37.705Z,19.94
2022-08-24T23:25:11.492Z,19.99
2022-08-24T23:27:46.558Z,19.88
2022-08-24T23:30:16.117Z,19.95
2022-08-24T23:32:47.580Z,20.01
2022-08-24T23:35:18.413Z,20.00
2022-08-24T23:37:48.940Z,19.90
2022-08-24T23:40:20.202Z,19.90
2022-08-24T23:42:51.825Z,20.02
2022-08-24T23:45:28.331Z,19.92
2022-08-24T23:47:57.074Z,19.88
2022-08-24T23:50:27.122Z,19.90
2022-08-24T23:52:57.623Z,19.99
2022-08-24T23:55:28.378Z,19.87
2022-08-24T23:57:58.938Z,19.88
